Home > Products > Valid Products > TAF

000
FTUS45 KBOU 010538
TAFDEN
TAF
KDEN 010538Z 0106/0212 22007KT P6SM FEW150 BKN250
     FM011500 24007KT P6SM FEW140 SCT200
     FM011900 VRB05KT P6SM SCT090 BKN200
     FM012300 26011KT P6SM SCT080 BKN150 PROB30 0123/0202 VRB15G30KT
      -TSRA BKN070CB BKN120
     FM020200 22008KT P6SM SCT120 SCT200
     FM020700 19010KT P6SM FEW140 SCT250=



000
FTUS45 KBOU 010538
TAFBJC
TAF
KBJC 010538Z 0106/0206 27010KT P6SM FEW140 SCT250
     FM011300 VRB05KT P6SM FEW120 SCT200
     FM011800 VRB05KT P6SM FEW090 SCT120 BKN200
     FM012100 27010KT P6SM SCT080 BKN150 PROB30 0121/0124 VRB15G30KT
      -TSRA BKN060CB BKN120
     FM020100 14008KT P6SM SCT120 SCT200=



000
FTUS45 KBOU 010538
TAFBJC
TAF
KBJC 010538Z 0106/0206 27010KT P6SM FEW140 SCT250
     FM011300 VRB05KT P6SM FEW120 SCT200
     FM011800 VRB05KT P6SM FEW090 SCT120 BKN200
     FM012100 27010KT P6SM SCT080 BKN150 PROB30 0121/0124 VRB15G30KT
      -TSRA BKN060CB BKN120
     FM020100 14008KT P6SM SCT120 SCT200=



000
FTUS45 KBOU 010538
TAFAPA
TAF
KAPA 010538Z 0106/0206 20006KT P6SM SCT120 BKN250
     FM011400 23007KT P6SM FEW140 SCT200
     FM011800 VRB05KT P6SM SCT090 BKN200
     FM012200 24011KT P6SM SCT080 BKN150 PROB30 0122/0201 VRB15G30KT
      -TSRA BKN070CB BKN120
     FM020200 21008KT P6SM SCT120 SCT200=



000
FTUS45 KBOU 010538
TAFDEN
TAF
KDEN 010538Z 0106/0212 22007KT P6SM FEW150 BKN250
     FM011500 24007KT P6SM FEW140 SCT200
     FM011900 VRB05KT P6SM SCT090 BKN200
     FM012300 26011KT P6SM SCT080 BKN150 PROB30 0123/0202 VRB15G30KT
      -TSRA BKN070CB BKN120
     FM020200 22008KT P6SM SCT120 SCT200
     FM020700 19010KT P6SM FEW140 SCT250=



000
FTUS45 KBOU 010538
TAFAPA
TAF
KAPA 010538Z 0106/0206 20006KT P6SM SCT120 BKN250
     FM011400 23007KT P6SM FEW140 SCT200
     FM011800 VRB05KT P6SM SCT090 BKN200
     FM012200 24011KT P6SM SCT080 BKN150 PROB30 0122/0201 VRB15G30KT
      -TSRA BKN070CB BKN120
     FM020200 21008KT P6SM SCT120 SCT200=



000
FTUS45 KBOU 010343 AAB
TAFBJC
TAF AMD
KBJC 010343Z 0104/0124 VRB05KT P6SM SCT120 SCT220
     FM011000 29005KT P6SM FEW120 BKN200
     FM011500 VRB04KT P6SM FEW120 SCT200
     FM011800 VRB05KT P6SM FEW090 SCT120 BKN200
     FM012100 08007KT P6SM VCSH SCT090 BKN150=



000
FTUS45 KBOU 010343 AAB
TAFBJC
TAF AMD
KBJC 010343Z 0104/0124 VRB05KT P6SM SCT120 SCT220
     FM011000 29005KT P6SM FEW120 BKN200
     FM011500 VRB04KT P6SM FEW120 SCT200
     FM011800 VRB05KT P6SM FEW090 SCT120 BKN200
     FM012100 08007KT P6SM VCSH SCT090 BKN150=



000
FTUS45 KBOU 010343 AAD
TAFDEN
TAF AMD
KDEN 010343Z 0104/0206 16005KT P6SM SCT120 SCT220
     FM010600 20009KT P6SM FEW120 BKN200
     FM011500 25007KT P6SM FEW120 SCT200
     FM011800 VRB05KT P6SM SCT090 BKN200
     FM012200 26011KT P6SM VCSH SCT090 BKN150=



000
FTUS45 KBOU 010343 AAD
TAFDEN
TAF AMD
KDEN 010343Z 0104/0206 16005KT P6SM SCT120 SCT220
     FM010600 20009KT P6SM FEW120 BKN200
     FM011500 25007KT P6SM FEW120 SCT200
     FM011800 VRB05KT P6SM SCT090 BKN200
     FM012200 26011KT P6SM VCSH SCT090 BKN150=



000
FTUS45 KBOU 010213 AAC
TAFDEN
TAF AMD
KDEN 010213Z 0102/0206 11005KT P6SM SCT120 BKN200
     FM010300 06005KT P6SM SCT120 BKN200
     FM010400 10007KT P6SM SCT120 BKN220
     FM010600 22009KT P6SM FEW120 BKN200
     FM011500 25007KT P6SM FEW120 SCT200
     FM011800 VRB05KT P6SM SCT090 BKN200
     FM012200 26011KT P6SM VCSH SCT090 BKN150=



000
FTUS45 KBOU 010213 AAC
TAFDEN
TAF AMD
KDEN 010213Z 0102/0206 11005KT P6SM SCT120 BKN200
     FM010300 06005KT P6SM SCT120 BKN200
     FM010400 10007KT P6SM SCT120 BKN220
     FM010600 22009KT P6SM FEW120 BKN200
     FM011500 25007KT P6SM FEW120 SCT200
     FM011800 VRB05KT P6SM SCT090 BKN200
     FM012200 26011KT P6SM VCSH SCT090 BKN150=



000
FTUS45 KBOU 010213 AAC
TAFDEN
TAF AMD
KDEN 010213Z 0102/0206 11005KT P6SM SCT120 BKN200
     FM010300 06005KT P6SM SCT120 BKN200
     FM010400 10007KT P6SM SCT120 BKN220
     FM010600 22009KT P6SM FEW120 BKN200
     FM011500 25007KT P6SM FEW120 SCT200
     FM011800 VRB05KT P6SM SCT090 BKN200
     FM012200 26011KT P6SM VCSH SCT090 BKN150=



000
FTUS45 KBOU 010127 AAA
TAFBJC
TAF AMD
KBJC 010127Z 0101/0124 15007KT P6SM SCT070 BKN110
     FM010200 02007KT P6SM FEW080 BKN120
     FM010400 29006KT P6SM SCT100 BKN200
     FM011000 VRB04KT P6SM SCT090 BKN200
     FM011500 25007KT P6SM FEW120 SCT200
     FM011800 VRB05KT P6SM SCT090 BKN200
     FM012200 26011KT P6SM VCSH SCT090 BKN150=



000
FTUS45 KBOU 010125 AAB
TAFDEN
TAF AMD
KDEN 010125Z 0101/0206 15007KT P6SM SCT100 BKN150
     FM010200 03011KT P6SM FEW090 BKN140 BKN200
     FM010300 11008KT P6SM FEW100 BKN150
     FM010500 22009KT P6SM SCT120 BKN200
     FM011500 25007KT P6SM FEW120 SCT200
     FM011800 VRB05KT P6SM SCT090 BKN200
     FM012200 26011KT P6SM VCSH SCT090 BKN150=



000
FTUS45 KBOU 010125 AAB
TAFDEN
TAF AMD
KDEN 010125Z 0101/0206 15007KT P6SM SCT100 BKN150
     FM010200 03011KT P6SM FEW090 BKN140 BKN200
     FM010300 11008KT P6SM FEW100 BKN150
     FM010500 22009KT P6SM SCT120 BKN200
     FM011500 25007KT P6SM FEW120 SCT200
     FM011800 VRB05KT P6SM SCT090 BKN200
     FM012200 26011KT P6SM VCSH SCT090 BKN150=



000
FTUS45 KBOU 312358 AAA
TAFDEN
TAF AMD
KDEN 312358Z 0100/0206 22006KT P6SM VCSH BKN090 BKN150
     FM010100 15007KT P6SM VCSH SCT070 BKN120
     FM010200 34011KT P6SM FEW080 BKN140 BKN200
     FM010500 22009KT P6SM SCT120 BKN200
     FM011500 25007KT P6SM FEW120 SCT200
     FM011800 VRB05KT P6SM SCT090 BKN200
     FM012200 26011KT P6SM VCSH SCT090 BKN150=



000
FTUS45 KBOU 312358 AAA
TAFDEN
TAF AMD
KDEN 312358Z 0100/0206 22006KT P6SM VCSH BKN090 BKN150
     FM010100 15007KT P6SM VCSH SCT070 BKN120
     FM010200 34011KT P6SM FEW080 BKN140 BKN200
     FM010500 22009KT P6SM SCT120 BKN200
     FM011500 25007KT P6SM FEW120 SCT200
     FM011800 VRB05KT P6SM SCT090 BKN200
     FM012200 26011KT P6SM VCSH SCT090 BKN150=



000
FTUS45 KBOU 312358 AAA
TAFDEN
TAF AMD
KDEN 312358Z 0100/0206 22006KT P6SM VCSH BKN090 BKN150
     FM010100 15007KT P6SM VCSH SCT070 BKN120
     FM010200 34011KT P6SM FEW080 BKN140 BKN200
     FM010500 22009KT P6SM SCT120 BKN200
     FM011500 25007KT P6SM FEW120 SCT200
     FM011800 VRB05KT P6SM SCT090 BKN200
     FM012200 26011KT P6SM VCSH SCT090 BKN150=



000
FTUS45 KBOU 312358 AAA
TAFDEN
TAF AMD
KDEN 312358Z 0100/0206 22006KT P6SM VCSH BKN090 BKN150
     FM010100 15007KT P6SM VCSH SCT070 BKN120
     FM010200 34011KT P6SM FEW080 BKN140 BKN200
     FM010500 22009KT P6SM SCT120 BKN200
     FM011500 25007KT P6SM FEW120 SCT200
     FM011800 VRB05KT P6SM SCT090 BKN200
     FM012200 26011KT P6SM VCSH SCT090 BKN150=



000
FTUS45 KBOU 312340
TAFDEN
TAF
KDEN 312340Z 0100/0206 28014KT P6SM -SHRA SCT070 BKN110
     FM010100 15007KT P6SM VCSH SCT070 BKN120
     FM010200 34011KT P6SM FEW080 BKN140 BKN200
     FM010500 22009KT P6SM SCT120 BKN200
     FM011500 25007KT P6SM FEW120 SCT200
     FM011800 VRB05KT P6SM SCT090 BKN200
     FM012200 26011KT P6SM VCSH SCT090 BKN150=



000
FTUS45 KBOU 312340
TAFDEN
TAF
KDEN 312340Z 0100/0206 28014KT P6SM -SHRA SCT070 BKN110
     FM010100 15007KT P6SM VCSH SCT070 BKN120
     FM010200 34011KT P6SM FEW080 BKN140 BKN200
     FM010500 22009KT P6SM SCT120 BKN200
     FM011500 25007KT P6SM FEW120 SCT200
     FM011800 VRB05KT P6SM SCT090 BKN200
     FM012200 26011KT P6SM VCSH SCT090 BKN150=



000
FTUS45 KBOU 312340
TAFAPA
TAF
KAPA 312340Z 0100/0124 15011KT P6SM VCSH SCT070 BKN120
     FM010100 17008KT P6SM FEW080 BKN120
     FM010500 22009KT P6SM SCT110 BKN200
     FM011400 25007KT P6SM FEW120 SCT200
     FM011700 VRB05KT P6SM SCT090 BKN200
     FM012100 24011KT P6SM VCSH SCT090 BKN150=



000
FTUS45 KBOU 312340
TAFBJC
TAF
KBJC 312340Z 0100/0124 24007KT P6SM VCSH FEW015 SCT070 BKN110
     FM010200 35007KT P6SM FEW080 BKN120
     FM010400 29006KT P6SM SCT100 BKN200
     FM011000 VRB04KT P6SM SCT090 BKN200
     FM011500 25007KT P6SM FEW120 SCT200
     FM011800 VRB05KT P6SM SCT090 BKN200
     FM012200 26011KT P6SM VCSH SCT090 BKN150=



000
FTUS45 KBOU 312340
TAFAPA
TAF
KAPA 312340Z 0100/0124 15011KT P6SM VCSH SCT070 BKN120
     FM010100 17008KT P6SM FEW080 BKN120
     FM010500 22009KT P6SM SCT110 BKN200
     FM011400 25007KT P6SM FEW120 SCT200
     FM011700 VRB05KT P6SM SCT090 BKN200
     FM012100 24011KT P6SM VCSH SCT090 BKN150=



000
FTUS45 KBOU 312340
TAFBJC
TAF
KBJC 312340Z 0100/0124 24007KT P6SM VCSH FEW015 SCT070 BKN110
     FM010200 35007KT P6SM FEW080 BKN120
     FM010400 29006KT P6SM SCT100 BKN200
     FM011000 VRB04KT P6SM SCT090 BKN200
     FM011500 25007KT P6SM FEW120 SCT200
     FM011800 VRB05KT P6SM SCT090 BKN200
     FM012200 26011KT P6SM VCSH SCT090 BKN150=



000
FTUS45 KBOU 312309 AAD
TAFBJC
TAF AMD
KBJC 312309Z 3123/0118 26011KT P6SM -SHRA BKN012 OVC120
     FM010000 26007KT P6SM VCSH FEW030 SCT070 BKN110
     FM010400 25007KT P6SM FEW080 SCT120
     FM011000 VRB04KT P6SM SCT090 BKN200=



000
FTUS45 KBOU 312309 AAD
TAFBJC
TAF AMD
KBJC 312309Z 3123/0118 26011KT P6SM -SHRA BKN012 OVC120
     FM010000 26007KT P6SM VCSH FEW030 SCT070 BKN110
     FM010400 25007KT P6SM FEW080 SCT120
     FM011000 VRB04KT P6SM SCT090 BKN200=



000
FTUS45 KBOU 312305 AAF
TAFDEN
TAF AMD
KDEN 312305Z 3123/0124 29015G25KT 4SM -TSRA BKN080CB BKN110
     FM010000 27014KT P6SM -SHRA SCT070 BKN110
     FM010100 24008KT P6SM VCSH SCT070 BKN120
     FM010900 22008KT P6SM SCT090 BKN200
     FM011800 13008KT P6SM SCT090 BKN200
     FM012100 26011KT P6SM VCTS SCT090CB BKN150=



000
FTUS45 KBOU 312305 AAF
TAFDEN
TAF AMD
KDEN 312305Z 3123/0124 29015G25KT 4SM -TSRA BKN080CB BKN110
     FM010000 27014KT P6SM -SHRA SCT070 BKN110
     FM010100 24008KT P6SM VCSH SCT070 BKN120
     FM010900 22008KT P6SM SCT090 BKN200
     FM011800 13008KT P6SM SCT090 BKN200
     FM012100 26011KT P6SM VCTS SCT090CB BKN150=



000
FTUS45 KBOU 312234 AAE
TAFDEN
TAF AMD
KDEN 312234Z 3123/0124 27030G40KT 6SM -TSRA SCT080CB BKN110
     FM010000 26014KT P6SM VCSH SCT070 BKN130
     FM010900 22008KT P6SM SCT090 BKN200
     FM011800 13008KT P6SM SCT090 BKN200
     FM012100 26011KT P6SM VCTS SCT090CB BKN150=



000
FTUS45 KBOU 312234 AAE
TAFDEN
TAF AMD
KDEN 312234Z 3123/0124 27030G40KT 6SM -TSRA SCT080CB BKN110
     FM010000 26014KT P6SM VCSH SCT070 BKN130
     FM010900 22008KT P6SM SCT090 BKN200
     FM011800 13008KT P6SM SCT090 BKN200
     FM012100 26011KT P6SM VCTS SCT090CB BKN150=



000
FTUS45 KBOU 312227 AAB
TAFAPA
TAF AMD
KAPA 312227Z 3122/0118 29025G35KT P6SM VCTS SCT080CB BKN140
      TEMPO 3122/3124 VRB20G30KT -SHRA BKN080
     FM010000 26011KT P6SM VCSH SCT070 BKN120
     FM010900 17007KT P6SM SCT120 BKN200=



000
FTUS45 KBOU 312227 AAB
TAFAPA
TAF AMD
KAPA 312227Z 3122/0118 29025G35KT P6SM VCTS SCT080CB BKN140
      TEMPO 3122/3124 VRB20G30KT -SHRA BKN080
     FM010000 26011KT P6SM VCSH SCT070 BKN120
     FM010900 17007KT P6SM SCT120 BKN200=



000
FTUS45 KBOU 312227 AAB
TAFAPA
TAF AMD
KAPA 312227Z 3122/0118 29025G35KT P6SM VCTS SCT080CB BKN140
      TEMPO 3122/3124 VRB20G30KT -SHRA BKN080
     FM010000 26011KT P6SM VCSH SCT070 BKN120
     FM010900 17007KT P6SM SCT120 BKN200=



000
FTUS45 KBOU 312225 AAD
TAFDEN
TAF AMD
KDEN 312225Z 3122/0124 27025G38KT P6SM VCTS SCT080CB BKN140
      TEMPO 3122/3124 26025G35KT -SHRA BKN080
     FM010100 14008KT P6SM SCT070 BKN130
     FM010900 22008KT P6SM SCT090 BKN200
     FM011800 13008KT P6SM SCT090 BKN200
     FM012100 26011KT P6SM VCTS SCT090CB BKN150=



000
FTUS45 KBOU 312225 AAD
TAFDEN
TAF AMD
KDEN 312225Z 3122/0124 27025G38KT P6SM VCTS SCT080CB BKN140
      TEMPO 3122/3124 26025G35KT -SHRA BKN080
     FM010100 14008KT P6SM SCT070 BKN130
     FM010900 22008KT P6SM SCT090 BKN200
     FM011800 13008KT P6SM SCT090 BKN200
     FM012100 26011KT P6SM VCTS SCT090CB BKN150=



000
FTUS45 KBOU 312225 AAD
TAFDEN
TAF AMD
KDEN 312225Z 3122/0124 27025G38KT P6SM VCTS SCT080CB BKN140
      TEMPO 3122/3124 26025G35KT -SHRA BKN080
     FM010100 14008KT P6SM SCT070 BKN130
     FM010900 22008KT P6SM SCT090 BKN200
     FM011800 13008KT P6SM SCT090 BKN200
     FM012100 26011KT P6SM VCTS SCT090CB BKN150=



000
FTUS45 KBOU 312159 AAC
TAFDEN
TAF AMD
KDEN 312159Z 3122/0124 32004KT P6SM FEW080 SCT100 BKN150
     FM312230 27020G32KT P6SM VCTS SCT080CB BKN140
      TEMPO 3123/0101 27025G38KT -SHRA BKN080
     FM010100 14008KT P6SM SCT070 BKN130
     FM010900 22008KT P6SM SCT090 BKN200
     FM011800 13008KT P6SM SCT090 BKN200
     FM012100 26011KT P6SM VCTS SCT090CB BKN150=



000
FTUS45 KBOU 312159 AAC
TAFDEN
TAF AMD
KDEN 312159Z 3122/0124 32004KT P6SM FEW080 SCT100 BKN150
     FM312230 27020G32KT P6SM VCTS SCT080CB BKN140
      TEMPO 3123/0101 27025G38KT -SHRA BKN080
     FM010100 14008KT P6SM SCT070 BKN130
     FM010900 22008KT P6SM SCT090 BKN200
     FM011800 13008KT P6SM SCT090 BKN200
     FM012100 26011KT P6SM VCTS SCT090CB BKN150=



000
FTUS45 KBOU 312156 AAC
TAFBJC
TAF AMD
KBJC 312156Z 3122/0118 27015KT P6SM VCSH SCT080 OVC120
      TEMPO 3122/0101 27020G38KT -TSRA BKN060CB
     FM010200 26007KT P6SM SCT070 BKN120
     FM011000 VRB04KT P6SM SCT090 BKN200=



000
FTUS45 KBOU 312156 AAC
TAFBJC
TAF AMD
KBJC 312156Z 3122/0118 27015KT P6SM VCSH SCT080 OVC120
      TEMPO 3122/0101 27020G38KT -TSRA BKN060CB
     FM010200 26007KT P6SM SCT070 BKN120
     FM011000 VRB04KT P6SM SCT090 BKN200=



000
FTUS45 KBOU 312156 AAC
TAFBJC
TAF AMD
KBJC 312156Z 3122/0118 27015KT P6SM VCSH SCT080 OVC120
      TEMPO 3122/0101 27020G38KT -TSRA BKN060CB
     FM010200 26007KT P6SM SCT070 BKN120
     FM011000 VRB04KT P6SM SCT090 BKN200=



000
FTUS45 KBOU 312156 AAC
TAFBJC
TAF AMD
KBJC 312156Z 3122/0118 27015KT P6SM VCSH SCT080 OVC120
      TEMPO 3122/0101 27020G38KT -TSRA BKN060CB
     FM010200 26007KT P6SM SCT070 BKN120
     FM011000 VRB04KT P6SM SCT090 BKN200=



000
FTUS45 KBOU 312119 AAB
TAFBJC
TAF AMD
KBJC 312119Z 3121/0118 29006KT P6SM VCSH SCT080 OVC120
      TEMPO 3121/0101 VRB15G25KT -TSRA BKN070CB
     FM010200 26007KT P6SM SCT070 BKN120
     FM011000 VRB04KT P6SM SCT090 BKN200=



000
FTUS45 KBOU 312119 AAB
TAFBJC
TAF AMD
KBJC 312119Z 3121/0118 29006KT P6SM VCSH SCT080 OVC120
      TEMPO 3121/0101 VRB15G25KT -TSRA BKN070CB
     FM010200 26007KT P6SM SCT070 BKN120
     FM011000 VRB04KT P6SM SCT090 BKN200=



000
FTUS45 KBOU 312056 AAA
TAFAPA
TAF AMD
KAPA 312056Z 3121/0118 VRB05KT P6SM VCTS SCT080CB BKN140
      TEMPO 3121/0101 VRB15G25KT -SHRA BKN080
     FM010100 17007KT P6SM SCT070 BKN120
     FM010900 17007KT P6SM SCT120 BKN200=



000
FTUS45 KBOU 312056 AAA
TAFAPA
TAF AMD
KAPA 312056Z 3121/0118 VRB05KT P6SM VCTS SCT080CB BKN140
      TEMPO 3121/0101 VRB15G25KT -SHRA BKN080
     FM010100 17007KT P6SM SCT070 BKN120
     FM010900 17007KT P6SM SCT120 BKN200=



000
FTUS45 KBOU 312056 AAB
TAFDEN
TAF AMD
KDEN 312056Z 3121/0124 32004KT P6SM FEW080 SCT100 BKN150
     FM312200 30007KT P6SM VCTS SCT080CB BKN140
      TEMPO 3122/0101 VRB15G25KT -SHRA BKN080
     FM010100 14008KT P6SM SCT070 BKN130
     FM010900 22008KT P6SM SCT090 BKN200
     FM011800 13008KT P6SM SCT090 BKN200
     FM012100 26011KT P6SM VCTS SCT090CB BKN150=



000
FTUS45 KBOU 312056 AAB
TAFDEN
TAF AMD
KDEN 312056Z 3121/0124 32004KT P6SM FEW080 SCT100 BKN150
     FM312200 30007KT P6SM VCTS SCT080CB BKN140
      TEMPO 3122/0101 VRB15G25KT -SHRA BKN080
     FM010100 14008KT P6SM SCT070 BKN130
     FM010900 22008KT P6SM SCT090 BKN200
     FM011800 13008KT P6SM SCT090 BKN200
     FM012100 26011KT P6SM VCTS SCT090CB BKN150=



000
FTUS45 KBOU 312056 AAA
TAFBJC
TAF AMD
KBJC 312056Z 3121/0118 29006KT P6SM VCTS SCT080CB OVC120
      TEMPO 3121/0101 VRB15G25KT -SHRA BKN070
     FM010200 26007KT P6SM SCT070 BKN120
     FM011000 VRB04KT P6SM SCT090 BKN200=



000
FTUS45 KBOU 312056 AAA
TAFBJC
TAF AMD
KBJC 312056Z 3121/0118 29006KT P6SM VCTS SCT080CB OVC120
      TEMPO 3121/0101 VRB15G25KT -SHRA BKN070
     FM010200 26007KT P6SM SCT070 BKN120
     FM011000 VRB04KT P6SM SCT090 BKN200=



000
FTUS45 KBOU 311907 AAA
TAFDEN
TAF AMD
KDEN 311907Z 3119/0124 34006KT P6SM FEW080 SCT100 BKN150
     FM312100 04010KT P6SM VCTS SCT080CB BKN140
     FM010100 14008KT P6SM SCT070 BKN130
     FM010900 22008KT P6SM SCT090 BKN200
     FM011800 13008KT P6SM SCT090 BKN200
     FM012100 26011KT P6SM VCTS SCT090CB BKN150=



000
FTUS45 KBOU 311907 AAA
TAFDEN
TAF AMD
KDEN 311907Z 3119/0124 34006KT P6SM FEW080 SCT100 BKN150
     FM312100 04010KT P6SM VCTS SCT080CB BKN140
     FM010100 14008KT P6SM SCT070 BKN130
     FM010900 22008KT P6SM SCT090 BKN200
     FM011800 13008KT P6SM SCT090 BKN200
     FM012100 26011KT P6SM VCTS SCT090CB BKN150=



000
FTUS45 KBOU 311740
TAFAPA
TAF
KAPA 311740Z 3118/0118 15005KT P6SM SCT080 BKN120
     FM312000 03007KT P6SM VCTS SCT070CB BKN110
     FM010100 17007KT P6SM SCT070 BKN120
     FM010900 17007KT P6SM SCT120 BKN200=



000
FTUS45 KBOU 311740
TAFBJC
TAF
KBJC 311740Z 3118/0118 10007KT P6SM BKN100
     FM312100 29006KT P6SM SCT070 OVC100
      TEMPO 3121/0101 VRB15G25KT -TSRA BKN070CB
     FM010500 26007KT P6SM SCT070 BKN120
     FM011000 VRB04KT P6SM SCT090 BKN200=



000
FTUS45 KBOU 311740
TAFDEN
TAF
KDEN 311740Z 3118/0124 09009KT P6SM SCT070 BKN120
     FM312000 04011KT P6SM VCTS SCT070CB BKN110
     FM010100 17008KT P6SM SCT070 BKN120
     FM010900 22008KT P6SM SCT120 BKN200
     FM011800 13008KT P6SM SCT090 BKN200
     FM012100 26011KT P6SM VCTS SCT090CB BKN150=



000
FTUS45 KBOU 311740
TAFAPA
TAF
KAPA 311740Z 3118/0118 15005KT P6SM SCT080 BKN120
     FM312000 03007KT P6SM VCTS SCT070CB BKN110
     FM010100 17007KT P6SM SCT070 BKN120
     FM010900 17007KT P6SM SCT120 BKN200=



000
FTUS45 KBOU 311740
TAFDEN
TAF
KDEN 311740Z 3118/0124 09009KT P6SM SCT070 BKN120
     FM312000 04011KT P6SM VCTS SCT070CB BKN110
     FM010100 17008KT P6SM SCT070 BKN120
     FM010900 22008KT P6SM SCT120 BKN200
     FM011800 13008KT P6SM SCT090 BKN200
     FM012100 26011KT P6SM VCTS SCT090CB BKN150=



000
FTUS45 KBOU 311740
TAFBJC
TAF
KBJC 311740Z 3118/0118 10007KT P6SM BKN100
     FM312100 29006KT P6SM SCT070 OVC100
      TEMPO 3121/0101 VRB15G25KT -TSRA BKN070CB
     FM010500 26007KT P6SM SCT070 BKN120
     FM011000 VRB04KT P6SM SCT090 BKN200=



000
FTUS45 KBOU 311740
TAFBJC
TAF
KBJC 311740Z 3118/0118 10007KT P6SM BKN100
     FM312100 29006KT P6SM SCT070 OVC100
      TEMPO 3121/0101 VRB15G25KT -TSRA BKN070CB
     FM010500 26007KT P6SM SCT070 BKN120
     FM011000 VRB04KT P6SM SCT090 BKN200=



000
FTUS45 KBOU 311740
TAFAPA
TAF
KAPA 311740Z 3118/0118 15005KT P6SM SCT080 BKN120
     FM312000 03007KT P6SM VCTS SCT070CB BKN110
     FM010100 17007KT P6SM SCT070 BKN120
     FM010900 17007KT P6SM SCT120 BKN200=



000
FTUS45 KBOU 311740
TAFDEN
TAF
KDEN 311740Z 3118/0124 09009KT P6SM SCT070 BKN120
     FM312000 04011KT P6SM VCTS SCT070CB BKN110
     FM010100 17008KT P6SM SCT070 BKN120
     FM010900 22008KT P6SM SCT120 BKN200
     FM011800 13008KT P6SM SCT090 BKN200
     FM012100 26011KT P6SM VCTS SCT090CB BKN150=



000
FTUS45 KBOU 311740
TAFBJC
TAF
KBJC 311740Z 3118/0118 10007KT P6SM BKN100
     FM312100 29006KT P6SM SCT070 OVC100
      TEMPO 3121/0101 VRB15G25KT -TSRA BKN070CB
     FM010500 26007KT P6SM SCT070 BKN120
     FM011000 VRB04KT P6SM SCT090 BKN200=



000
FTUS45 KBOU 311740
TAFAPA
TAF
KAPA 311740Z 3118/0118 15005KT P6SM SCT080 BKN120
     FM312000 03007KT P6SM VCTS SCT070CB BKN110
     FM010100 17007KT P6SM SCT070 BKN120
     FM010900 17007KT P6SM SCT120 BKN200=



000
FTUS45 KBOU 311740
TAFDEN
TAF
KDEN 311740Z 3118/0124 09009KT P6SM SCT070 BKN120
     FM312000 04011KT P6SM VCTS SCT070CB BKN110
     FM010100 17008KT P6SM SCT070 BKN120
     FM010900 22008KT P6SM SCT120 BKN200
     FM011800 13008KT P6SM SCT090 BKN200
     FM012100 26011KT P6SM VCTS SCT090CB BKN150=



000
FTUS45 KBOU 311430 AAA
TAFDEN
TAF AMD
KDEN 311430Z 3115/0118 06006KT P6SM SCT100 BKN200
     FM311700 01009KT P6SM SCT070 BKN120
     FM311900 01011G17KT P6SM VCTS SCT070CB BKN110
     FM010200 14008KT P6SM SCT070 BKN120
     FM010500 18008KT P6SM SCT120 BKN150
     FM010800 21010KT P6SM SCT120 SCT200=



000
FTUS45 KBOU 311430 AAA
TAFDEN
TAF AMD
KDEN 311430Z 3115/0118 06006KT P6SM SCT100 BKN200
     FM311700 01009KT P6SM SCT070 BKN120
     FM311900 01011G17KT P6SM VCTS SCT070CB BKN110
     FM010200 14008KT P6SM SCT070 BKN120
     FM010500 18008KT P6SM SCT120 BKN150
     FM010800 21010KT P6SM SCT120 SCT200=



000
FTUS45 KBOU 311430 AAA
TAFAPA
TAF AMD
KAPA 311430Z 3115/0112 13005KT P6SM SCT080 BKN120
     FM311800 01009KT P6SM VCTS SCT070CB BKN110
     FM010100 14008KT P6SM VCSH SCT060 BKN110
     FM010500 19007KT P6SM SCT120=



000
FTUS45 KBOU 311430 AAA
TAFDEN
TAF AMD
KDEN 311430Z 3115/0118 06006KT P6SM SCT100 BKN200
     FM311700 01009KT P6SM SCT070 BKN120
     FM311900 01011G17KT P6SM VCTS SCT070CB BKN110
     FM010200 14008KT P6SM SCT070 BKN120
     FM010500 18008KT P6SM SCT120 BKN150
     FM010800 21010KT P6SM SCT120 SCT200=



000
FTUS45 KBOU 311430 AAA
TAFAPA
TAF AMD
KAPA 311430Z 3115/0112 13005KT P6SM SCT080 BKN120
     FM311800 01009KT P6SM VCTS SCT070CB BKN110
     FM010100 14008KT P6SM VCSH SCT060 BKN110
     FM010500 19007KT P6SM SCT120=



000
FTUS45 KBOU 311430 AAA
TAFAPA
TAF AMD
KAPA 311430Z 3115/0112 13005KT P6SM SCT080 BKN120
     FM311800 01009KT P6SM VCTS SCT070CB BKN110
     FM010100 14008KT P6SM VCSH SCT060 BKN110
     FM010500 19007KT P6SM SCT120=



000
FTUS45 KBOU 311430 AAA
TAFDEN
TAF AMD
KDEN 311430Z 3115/0118 06006KT P6SM SCT100 BKN200
     FM311700 01009KT P6SM SCT070 BKN120
     FM311900 01011G17KT P6SM VCTS SCT070CB BKN110
     FM010200 14008KT P6SM SCT070 BKN120
     FM010500 18008KT P6SM SCT120 BKN150
     FM010800 21010KT P6SM SCT120 SCT200=



000
FTUS45 KBOU 311430 AAA
TAFAPA
TAF AMD
KAPA 311430Z 3115/0112 13005KT P6SM SCT080 BKN120
     FM311800 01009KT P6SM VCTS SCT070CB BKN110
     FM010100 14008KT P6SM VCSH SCT060 BKN110
     FM010500 19007KT P6SM SCT120=



000
FTUS45 KBOU 311257 AAA
TAFBJC
TAF AMD
KBJC 311257Z 3113/0112 29010KT P6SM VCSH SCT090 BKN120
     FM311600 34009KT P6SM SCT070 BKN120
     FM311800 01010KT P6SM SCT070 BKN110
      TEMPO 3121/0101 -TSRA BKN070CB
     FM010100 VRB05KT P6SM SCT070 BKN120
     FM010400 23007KT P6SM FEW060 SCT120=



000
FTUS45 KBOU 311120
TAFAPA
TAF
KAPA 311120Z 3112/0112 25005KT P6SM VCSH SCT090 BKN130
     FM311600 33007KT P6SM SCT070 BKN120
     FM311800 01011KT P6SM SCT070 BKN110 PROB30 3121/0101 -TSRA
      BKN060CB
     FM010100 14008KT P6SM VCSH SCT060 BKN110
     FM010500 19007KT P6SM SCT120=



000
FTUS45 KBOU 311120
TAFDEN
TAF
KDEN 311120Z 3112/0118 30006KT P6SM VCSH SCT090 BKN130
     FM311600 35009KT P6SM SCT070 BKN120
     FM311800 01011G17KT P6SM SCT070 BKN110 PROB30 3121/0101 -TSRA
      BKN060CB
     FM010200 14008KT P6SM SCT070 BKN120
     FM010500 18008KT P6SM SCT120 BKN150
     FM010800 21010KT P6SM SCT120 SCT200=



000
FTUS45 KBOU 311120
TAFBJC
TAF
KBJC 311120Z 3112/0112 29012G20KT P6SM VCSH SCT090 BKN120
     FM311600 34009KT P6SM SCT070 BKN120
     FM311800 01010KT P6SM SCT070 BKN110 PROB30 3121/0101 -TSRA
      BKN070CB
     FM010100 VRB05KT P6SM SCT070 BKN120
     FM010400 23007KT P6SM FEW060 SCT120=



000
FTUS45 KBOU 311120
TAFAPA
TAF
KAPA 311120Z 3112/0112 25005KT P6SM VCSH SCT090 BKN130
     FM311600 33007KT P6SM SCT070 BKN120
     FM311800 01011KT P6SM SCT070 BKN110 PROB30 3121/0101 -TSRA
      BKN060CB
     FM010100 14008KT P6SM VCSH SCT060 BKN110
     FM010500 19007KT P6SM SCT120=



000
FTUS45 KBOU 311120
TAFBJC
TAF
KBJC 311120Z 3112/0112 29012G20KT P6SM VCSH SCT090 BKN120
     FM311600 34009KT P6SM SCT070 BKN120
     FM311800 01010KT P6SM SCT070 BKN110 PROB30 3121/0101 -TSRA
      BKN070CB
     FM010100 VRB05KT P6SM SCT070 BKN120
     FM010400 23007KT P6SM FEW060 SCT120=



000
FTUS45 KBOU 311120
TAFBJC
TAF
KBJC 311120Z 3112/0112 29012G20KT P6SM VCSH SCT090 BKN120
     FM311600 34009KT P6SM SCT070 BKN120
     FM311800 01010KT P6SM SCT070 BKN110 PROB30 3121/0101 -TSRA
      BKN070CB
     FM010100 VRB05KT P6SM SCT070 BKN120
     FM010400 23007KT P6SM FEW060 SCT120=



000
FTUS45 KBOU 311120
TAFBJC
TAF
KBJC 311120Z 3112/0112 29012G20KT P6SM VCSH SCT090 BKN120
     FM311600 34009KT P6SM SCT070 BKN120
     FM311800 01010KT P6SM SCT070 BKN110 PROB30 3121/0101 -TSRA
      BKN070CB
     FM010100 VRB05KT P6SM SCT070 BKN120
     FM010400 23007KT P6SM FEW060 SCT120=



000
FTUS45 KBOU 311120
TAFAPA
TAF
KAPA 311120Z 3112/0112 25005KT P6SM VCSH SCT090 BKN130
     FM311600 33007KT P6SM SCT070 BKN120
     FM311800 01011KT P6SM SCT070 BKN110 PROB30 3121/0101 -TSRA
      BKN060CB
     FM010100 14008KT P6SM VCSH SCT060 BKN110
     FM010500 19007KT P6SM SCT120=



000
FTUS45 KBOU 311120
TAFDEN
TAF
KDEN 311120Z 3112/0118 30006KT P6SM VCSH SCT090 BKN130
     FM311600 35009KT P6SM SCT070 BKN120
     FM311800 01011G17KT P6SM SCT070 BKN110 PROB30 3121/0101 -TSRA
      BKN060CB
     FM010200 14008KT P6SM SCT070 BKN120
     FM010500 18008KT P6SM SCT120 BKN150
     FM010800 21010KT P6SM SCT120 SCT200=



000
FTUS45 KBOU 311120
TAFDEN
TAF
KDEN 311120Z 3112/0118 30006KT P6SM VCSH SCT090 BKN130
     FM311600 35009KT P6SM SCT070 BKN120
     FM311800 01011G17KT P6SM SCT070 BKN110 PROB30 3121/0101 -TSRA
      BKN060CB
     FM010200 14008KT P6SM SCT070 BKN120
     FM010500 18008KT P6SM SCT120 BKN150
     FM010800 21010KT P6SM SCT120 SCT200=



000
FTUS45 KBOU 311120
TAFDEN
TAF
KDEN 311120Z 3112/0118 30006KT P6SM VCSH SCT090 BKN130
     FM311600 35009KT P6SM SCT070 BKN120
     FM311800 01011G17KT P6SM SCT070 BKN110 PROB30 3121/0101 -TSRA
      BKN060CB
     FM010200 14008KT P6SM SCT070 BKN120
     FM010500 18008KT P6SM SCT120 BKN150
     FM010800 21010KT P6SM SCT120 SCT200=



000
FTUS45 KBOU 311120
TAFAPA
TAF
KAPA 311120Z 3112/0112 25005KT P6SM VCSH SCT090 BKN130
     FM311600 33007KT P6SM SCT070 BKN120
     FM311800 01011KT P6SM SCT070 BKN110 PROB30 3121/0101 -TSRA
      BKN060CB
     FM010100 14008KT P6SM VCSH SCT060 BKN110
     FM010500 19007KT P6SM SCT120=



000
FTUS45 KBOU 311026 AAC
TAFDEN
TAF AMD
KDEN 311026Z 3110/0112 32006KT P6SM FEW090 BKN130
     FM311200 26007KT P6SM SCT090 BKN130
     FM311500 35009KT P6SM VCSH SCT080 BKN120
     FM311800 01014G24KT P6SM VCSH SCT070 BKN110 PROB30 3121/0101
      -TSRA BKN070CB
     FM010200 11009KT P6SM VCSH SCT060 BKN120
     FM010500 16008KT P6SM FEW060 SCT120=



000
FTUS45 KBOU 311026 AAC
TAFDEN
TAF AMD
KDEN 311026Z 3110/0112 32006KT P6SM FEW090 BKN130
     FM311200 26007KT P6SM SCT090 BKN130
     FM311500 35009KT P6SM VCSH SCT080 BKN120
     FM311800 01014G24KT P6SM VCSH SCT070 BKN110 PROB30 3121/0101
      -TSRA BKN070CB
     FM010200 11009KT P6SM VCSH SCT060 BKN120
     FM010500 16008KT P6SM FEW060 SCT120=



000
FTUS45 KBOU 311026 AAC
TAFDEN
TAF AMD
KDEN 311026Z 3110/0112 32006KT P6SM FEW090 BKN130
     FM311200 26007KT P6SM SCT090 BKN130
     FM311500 35009KT P6SM VCSH SCT080 BKN120
     FM311800 01014G24KT P6SM VCSH SCT070 BKN110 PROB30 3121/0101
      -TSRA BKN070CB
     FM010200 11009KT P6SM VCSH SCT060 BKN120
     FM010500 16008KT P6SM FEW060 SCT120=



000
FTUS45 KBOU 310948 AAA
TAFBJC
TAF AMD
KBJC 310948Z 3110/0106 28012G20KT P6SM SCT090 BKN120
     FM311400 35007KT P6SM VCSH SCT080 BKN120
     FM311800 01014G20KT P6SM VCSH SCT070 BKN110 PROB30 3120/3124
      5SM -TSRA BKN070CB
     FM010200 11009KT P6SM VCSH SCT060 BKN120=



000
FTUS45 KBOU 310948 AAA
TAFBJC
TAF AMD
KBJC 310948Z 3110/0106 28012G20KT P6SM SCT090 BKN120
     FM311400 35007KT P6SM VCSH SCT080 BKN120
     FM311800 01014G20KT P6SM VCSH SCT070 BKN110 PROB30 3120/3124
      5SM -TSRA BKN070CB
     FM010200 11009KT P6SM VCSH SCT060 BKN120=



000
FTUS45 KBOU 310948 AAA
TAFBJC
TAF AMD
KBJC 310948Z 3110/0106 28012G20KT P6SM SCT090 BKN120
     FM311400 35007KT P6SM VCSH SCT080 BKN120
     FM311800 01014G20KT P6SM VCSH SCT070 BKN110 PROB30 3120/3124
      5SM -TSRA BKN070CB
     FM010200 11009KT P6SM VCSH SCT060 BKN120=



000
FTUS45 KBOU 310948 AAA
TAFBJC
TAF AMD
KBJC 310948Z 3110/0106 28012G20KT P6SM SCT090 BKN120
     FM311400 35007KT P6SM VCSH SCT080 BKN120
     FM311800 01014G20KT P6SM VCSH SCT070 BKN110 PROB30 3120/3124
      5SM -TSRA BKN070CB
     FM010200 11009KT P6SM VCSH SCT060 BKN120=



000
FTUS45 KBOU 310806 AAB
TAFDEN
TAF AMD
KDEN 310806Z 3108/0112 30012KT P6SM SCT090 BKN130
     FM311100 26009KT P6SM SCT090 BKN130
     FM311400 32009KT P6SM VCSH SCT080 BKN120
     FM311800 01014G24KT P6SM VCSH SCT070 BKN110 PROB30 3120/3124
      5SM -TSRA BKN070CB
     FM010200 11009KT P6SM VCSH SCT060 BKN120
     FM010500 16008KT P6SM FEW060 SCT120=



000
FTUS45 KBOU 310725 AAA
TAFDEN
TAF AMD
KDEN 310725Z 3107/0112 26009KT P6SM SCT090 BKN130
     FM311400 31009KT P6SM VCSH SCT080 BKN120
     FM311800 01014G24KT P6SM VCSH SCT070 BKN110 PROB30 3120/3124
      5SM -TSRA BKN070CB
     FM010200 11009KT P6SM VCSH SCT060 BKN120
     FM010500 16008KT P6SM FEW060 SCT120=



000
FTUS45 KBOU 310725 AAA
TAFDEN
TAF AMD
KDEN 310725Z 3107/0112 26009KT P6SM SCT090 BKN130
     FM311400 31009KT P6SM VCSH SCT080 BKN120
     FM311800 01014G24KT P6SM VCSH SCT070 BKN110 PROB30 3120/3124
      5SM -TSRA BKN070CB
     FM010200 11009KT P6SM VCSH SCT060 BKN120
     FM010500 16008KT P6SM FEW060 SCT120=



000
FTUS45 KBOU 310725 AAA
TAFDEN
TAF AMD
KDEN 310725Z 3107/0112 26009KT P6SM SCT090 BKN130
     FM311400 31009KT P6SM VCSH SCT080 BKN120
     FM311800 01014G24KT P6SM VCSH SCT070 BKN110 PROB30 3120/3124
      5SM -TSRA BKN070CB
     FM010200 11009KT P6SM VCSH SCT060 BKN120
     FM010500 16008KT P6SM FEW060 SCT120=



000
FTUS45 KBOU 310725 AAA
TAFDEN
TAF AMD
KDEN 310725Z 3107/0112 26009KT P6SM SCT090 BKN130
     FM311400 31009KT P6SM VCSH SCT080 BKN120
     FM311800 01014G24KT P6SM VCSH SCT070 BKN110 PROB30 3120/3124
      5SM -TSRA BKN070CB
     FM010200 11009KT P6SM VCSH SCT060 BKN120
     FM010500 16008KT P6SM FEW060 SCT120=



000
FTUS45 KBOU 310521
TAFDEN
TAF
KDEN 310521Z 3106/0112 19011KT P6SM SCT090 BKN130
     FM310900 26009KT P6SM SCT090 BKN120
     FM311400 31009KT P6SM VCSH SCT080 BKN120
     FM311800 01014G24KT P6SM VCSH SCT070 BKN110 PROB30 3120/3124
      5SM -TSRA BKN070CB
     FM010200 11009KT P6SM VCSH SCT060 BKN120
     FM010500 16008KT P6SM FEW060 SCT120=



000
FTUS45 KBOU 310521
TAFBJC
TAF
KBJC 310521Z 3106/0106 29008KT P6SM SCT090 BKN120
     FM310900 31009KT P6SM SCT090 BKN120
     FM311400 35007KT P6SM VCSH SCT080 BKN120
     FM311800 01014G20KT P6SM VCSH SCT070 BKN110 PROB30 3120/3124
      5SM -TSRA BKN070CB
     FM010200 11009KT P6SM VCSH SCT060 BKN120=



000
FTUS45 KBOU 310521
TAFAPA
TAF
KAPA 310521Z 3106/0106 23007KT P6SM SCT090 BKN120
     FM311400 31009KT P6SM VCSH SCT080 BKN120
     FM311900 01012G22KT P6SM VCSH SCT070 BKN110 PROB30 3120/3124
      5SM -TSRA BKN070CB
     FM010200 11009KT P6SM VCSH SCT060 BKN120=



000
FTUS45 KBOU 310521
TAFBJC
TAF
KBJC 310521Z 3106/0106 29008KT P6SM SCT090 BKN120
     FM310900 31009KT P6SM SCT090 BKN120
     FM311400 35007KT P6SM VCSH SCT080 BKN120
     FM311800 01014G20KT P6SM VCSH SCT070 BKN110 PROB30 3120/3124
      5SM -TSRA BKN070CB
     FM010200 11009KT P6SM VCSH SCT060 BKN120=



000
FTUS45 KBOU 310521
TAFDEN
TAF
KDEN 310521Z 3106/0112 19011KT P6SM SCT090 BKN130
     FM310900 26009KT P6SM SCT090 BKN120
     FM311400 31009KT P6SM VCSH SCT080 BKN120
     FM311800 01014G24KT P6SM VCSH SCT070 BKN110 PROB30 3120/3124
      5SM -TSRA BKN070CB
     FM010200 11009KT P6SM VCSH SCT060 BKN120
     FM010500 16008KT P6SM FEW060 SCT120=



000
FTUS45 KBOU 310521
TAFAPA
TAF
KAPA 310521Z 3106/0106 23007KT P6SM SCT090 BKN120
     FM311400 31009KT P6SM VCSH SCT080 BKN120
     FM311900 01012G22KT P6SM VCSH SCT070 BKN110 PROB30 3120/3124
      5SM -TSRA BKN070CB
     FM010200 11009KT P6SM VCSH SCT060 BKN120=



000
FTUS45 KBOU 310433 AAC
TAFDEN
TAF AMD
KDEN 310433Z 3105/0106 16014KT P6SM FEW090 SCT150
     FM310505 30009KT P6SM SCT080 BKN140
     FM310600 23011KT P6SM SCT090 BKN130
     FM310900 26009KT P6SM SCT090 BKN120
     FM311400 31009KT P6SM VCSH SCT080 BKN120
     FM311800 01014G24KT P6SM VCSH SCT070 BKN110 PROB30 3120/3124
      5SM -TSRA BKN070CB
     FM010200 11009KT P6SM VCSH SCT060 BKN120=



000
FTUS45 KBOU 310433 AAC
TAFDEN
TAF AMD
KDEN 310433Z 3105/0106 16014KT P6SM FEW090 SCT150
     FM310505 30009KT P6SM SCT080 BKN140
     FM310600 23011KT P6SM SCT090 BKN130
     FM310900 26009KT P6SM SCT090 BKN120
     FM311400 31009KT P6SM VCSH SCT080 BKN120
     FM311800 01014G24KT P6SM VCSH SCT070 BKN110 PROB30 3120/3124
      5SM -TSRA BKN070CB
     FM010200 11009KT P6SM VCSH SCT060 BKN120=



000
FTUS45 KBOU 310433 AAC
TAFDEN
TAF AMD
KDEN 310433Z 3105/0106 16014KT P6SM FEW090 SCT150
     FM310505 30009KT P6SM SCT080 BKN140
     FM310600 23011KT P6SM SCT090 BKN130
     FM310900 26009KT P6SM SCT090 BKN120
     FM311400 31009KT P6SM VCSH SCT080 BKN120
     FM311800 01014G24KT P6SM VCSH SCT070 BKN110 PROB30 3120/3124
      5SM -TSRA BKN070CB
     FM010200 11009KT P6SM VCSH SCT060 BKN120=



000
FTUS45 KBOU 310347 AAB
TAFAPA
TAF AMD
KAPA 310347Z 3104/3124 17010KT P6SM FEW090 SCT140
     FM310500 28009KT P6SM FEW090 BKN130
     FM310700 23007KT P6SM SCT090 BKN120
     FM311400 31009KT P6SM VCSH SCT080 BKN120
     FM311900 01012G22KT P6SM VCSH SCT070 BKN110 PROB30 3120/3124
      5SM -TSRA BKN070CB=



000
FTUS45 KBOU 310347 AAB
TAFAPA
TAF AMD
KAPA 310347Z 3104/3124 17010KT P6SM FEW090 SCT140
     FM310500 28009KT P6SM FEW090 BKN130
     FM310700 23007KT P6SM SCT090 BKN120
     FM311400 31009KT P6SM VCSH SCT080 BKN120
     FM311900 01012G22KT P6SM VCSH SCT070 BKN110 PROB30 3120/3124
      5SM -TSRA BKN070CB=



000
FTUS45 KBOU 310343 AAB
TAFBJC
TAF AMD
KBJC 310343Z 3104/3124 28011KT P6SM SCT080 BKN140
     FM310600 25009KT P6SM SCT090 BKN130
     FM310900 31009KT P6SM SCT090 BKN120
     FM311400 35007KT P6SM VCSH SCT080 BKN120
     FM311800 01014G20KT P6SM VCSH SCT070 BKN110 PROB30 3120/3124
      5SM -TSRA BKN070CB=



000
FTUS45 KBOU 310343 AAB
TAFBJC
TAF AMD
KBJC 310343Z 3104/3124 28011KT P6SM SCT080 BKN140
     FM310600 25009KT P6SM SCT090 BKN130
     FM310900 31009KT P6SM SCT090 BKN120
     FM311400 35007KT P6SM VCSH SCT080 BKN120
     FM311800 01014G20KT P6SM VCSH SCT070 BKN110 PROB30 3120/3124
      5SM -TSRA BKN070CB=



000
FTUS45 KBOU 310302 AAB
TAFDEN
TAF AMD
KDEN 310302Z 3103/0106 16014KT P6SM FEW090 SCT150
     FM310430 28009KT P6SM SCT080 BKN140
     FM310600 23011KT P6SM SCT090 BKN130
     FM310900 26009KT P6SM SCT090 BKN120
     FM311400 31009KT P6SM VCSH SCT080 BKN120
     FM311800 01014G24KT P6SM VCSH SCT070 BKN110 PROB30 3120/3124
      5SM -TSRA BKN070CB
     FM010200 11009KT P6SM VCSH SCT060 BKN120=



000
FTUS45 KBOU 310302 AAB
TAFDEN
TAF AMD
KDEN 310302Z 3103/0106 16014KT P6SM FEW090 SCT150
     FM310430 28009KT P6SM SCT080 BKN140
     FM310600 23011KT P6SM SCT090 BKN130
     FM310900 26009KT P6SM SCT090 BKN120
     FM311400 31009KT P6SM VCSH SCT080 BKN120
     FM311800 01014G24KT P6SM VCSH SCT070 BKN110 PROB30 3120/3124
      5SM -TSRA BKN070CB
     FM010200 11009KT P6SM VCSH SCT060 BKN120=



000
FTUS45 KBOU 310136 AAA
TAFDEN
TAF AMD
KDEN 310136Z 3102/0106 14014KT P6SM FEW090 SCT150
     FM310300 29010KT P6SM SCT080 BKN140
     FM310500 20011KT P6SM SCT090 BKN130
     FM310800 23009KT P6SM SCT090 BKN120
     FM311400 31009KT P6SM VCSH SCT080 BKN120
     FM311800 01014G24KT P6SM VCSH SCT070 BKN110 PROB30 3120/3124
      5SM -TSRA BKN070CB
     FM010200 11009KT P6SM VCSH SCT060 BKN120=



000
FTUS45 KBOU 310136 AAA
TAFDEN
TAF AMD
KDEN 310136Z 3102/0106 14014KT P6SM FEW090 SCT150
     FM310300 29010KT P6SM SCT080 BKN140
     FM310500 20011KT P6SM SCT090 BKN130
     FM310800 23009KT P6SM SCT090 BKN120
     FM311400 31009KT P6SM VCSH SCT080 BKN120
     FM311800 01014G24KT P6SM VCSH SCT070 BKN110 PROB30 3120/3124
      5SM -TSRA BKN070CB
     FM010200 11009KT P6SM VCSH SCT060 BKN120=



000
FTUS45 KBOU 310136 AAA
TAFDEN
TAF AMD
KDEN 310136Z 3102/0106 14014KT P6SM FEW090 SCT150
     FM310300 29010KT P6SM SCT080 BKN140
     FM310500 20011KT P6SM SCT090 BKN130
     FM310800 23009KT P6SM SCT090 BKN120
     FM311400 31009KT P6SM VCSH SCT080 BKN120
     FM311800 01014G24KT P6SM VCSH SCT070 BKN110 PROB30 3120/3124
      5SM -TSRA BKN070CB
     FM010200 11009KT P6SM VCSH SCT060 BKN120=



000
FTUS45 KBOU 310136 AAA
TAFDEN
TAF AMD
KDEN 310136Z 3102/0106 14014KT P6SM FEW090 SCT150
     FM310300 29010KT P6SM SCT080 BKN140
     FM310500 20011KT P6SM SCT090 BKN130
     FM310800 23009KT P6SM SCT090 BKN120
     FM311400 31009KT P6SM VCSH SCT080 BKN120
     FM311800 01014G24KT P6SM VCSH SCT070 BKN110 PROB30 3120/3124
      5SM -TSRA BKN070CB
     FM010200 11009KT P6SM VCSH SCT060 BKN120=



000
FTUS45 KBOU 310132 AAA
TAFBJC
TAF AMD
KBJC 310132Z 3102/3124 27011KT P6SM SCT080 BKN140
      TEMPO 3102/3104 28015G25KT BKN080
     FM310400 25009KT P6SM SCT090 BKN130
     FM310800 31009KT P6SM SCT090 BKN120
     FM311400 35007KT P6SM VCSH SCT080 BKN120
     FM311800 01014G20KT P6SM VCSH SCT070 BKN110 PROB30 3120/3124
      5SM -TSRA BKN070CB=



000
FTUS45 KBOU 310132 AAA
TAFBJC
TAF AMD
KBJC 310132Z 3102/3124 27011KT P6SM SCT080 BKN140
      TEMPO 3102/3104 28015G25KT BKN080
     FM310400 25009KT P6SM SCT090 BKN130
     FM310800 31009KT P6SM SCT090 BKN120
     FM311400 35007KT P6SM VCSH SCT080 BKN120
     FM311800 01014G20KT P6SM VCSH SCT070 BKN110 PROB30 3120/3124
      5SM -TSRA BKN070CB=



000
FTUS45 KBOU 310130 AAA
TAFAPA
TAF AMD
KAPA 310130Z 3102/3124 15010KT P6SM FEW080 SCT140
     FM310300 21009KT P6SM SCT090 BKN130
     FM310800 22009KT P6SM SCT090 BKN120
     FM311400 31009KT P6SM VCSH SCT080 BKN120
     FM311900 01012G22KT P6SM VCSH SCT070 BKN110 PROB30 3120/3124
      5SM -TSRA BKN070CB=



000
FTUS45 KBOU 310130 AAA
TAFAPA
TAF AMD
KAPA 310130Z 3102/3124 15010KT P6SM FEW080 SCT140
     FM310300 21009KT P6SM SCT090 BKN130
     FM310800 22009KT P6SM SCT090 BKN120
     FM311400 31009KT P6SM VCSH SCT080 BKN120
     FM311900 01012G22KT P6SM VCSH SCT070 BKN110 PROB30 3120/3124
      5SM -TSRA BKN070CB=



000
FTUS45 KBOU 302336
TAFBJC
TAF
KBJC 302336Z 3100/3124 13009KT P6SM FEW080 SCT150
     FM310100 15009KT P6SM VCSH SCT080 BKN140
      TEMPO 3101/3104 VRB15G25KT BKN080
     FM310400 21009KT P6SM SCT090 BKN130
     FM310800 31009KT P6SM SCT090 BKN120
     FM311400 35007KT P6SM VCSH SCT080 BKN120
     FM311800 01014G20KT P6SM VCSH SCT070 BKN110 PROB30 3120/3124
      5SM -TSRA BKN070CB=



000
FTUS45 KBOU 302336
TAFDEN
TAF
KDEN 302336Z 3100/0106 17011KT P6SM FEW090 SCT150
     FM310200 17014KT P6SM VCSH SCT080 BKN140
      TEMPO 3102/3104 VRB15G25KT BKN090
     FM310400 16012KT P6SM SCT090 BKN130
     FM310800 22009KT P6SM SCT090 BKN120
     FM311400 31009KT P6SM VCSH SCT080 BKN120
     FM311800 01014G24KT P6SM VCSH SCT070 BKN110 PROB30 3120/3124
      5SM -TSRA BKN070CB
     FM010200 11009KT P6SM VCSH SCT060 BKN120=



000
FTUS45 KBOU 302336
TAFAPA
TAF
KAPA 302336Z 3100/3124 13007KT P6SM FEW080 BKN140
     FM310100 17014KT P6SM VCSH SCT080 BKN140
      TEMPO 3102/3104 VRB15G25KT BKN080
     FM310400 16012KT P6SM SCT090 BKN130
     FM310800 22009KT P6SM SCT090 BKN120
     FM311400 31009KT P6SM VCSH SCT080 BKN120
     FM311900 01012G22KT P6SM VCSH SCT070 BKN110 PROB30 3120/3124
      5SM -TSRA BKN070CB=



000
FTUS45 KBOU 302336
TAFDEN
TAF
KDEN 302336Z 3100/0106 17011KT P6SM FEW090 SCT150
     FM310200 17014KT P6SM VCSH SCT080 BKN140
      TEMPO 3102/3104 VRB15G25KT BKN090
     FM310400 16012KT P6SM SCT090 BKN130
     FM310800 22009KT P6SM SCT090 BKN120
     FM311400 31009KT P6SM VCSH SCT080 BKN120
     FM311800 01014G24KT P6SM VCSH SCT070 BKN110 PROB30 3120/3124
      5SM -TSRA BKN070CB
     FM010200 11009KT P6SM VCSH SCT060 BKN120=



000
FTUS45 KBOU 302336
TAFAPA
TAF
KAPA 302336Z 3100/3124 13007KT P6SM FEW080 BKN140
     FM310100 17014KT P6SM VCSH SCT080 BKN140
      TEMPO 3102/3104 VRB15G25KT BKN080
     FM310400 16012KT P6SM SCT090 BKN130
     FM310800 22009KT P6SM SCT090 BKN120
     FM311400 31009KT P6SM VCSH SCT080 BKN120
     FM311900 01012G22KT P6SM VCSH SCT070 BKN110 PROB30 3120/3124
      5SM -TSRA BKN070CB=



000
FTUS45 KBOU 302336
TAFBJC
TAF
KBJC 302336Z 3100/3124 13009KT P6SM FEW080 SCT150
     FM310100 15009KT P6SM VCSH SCT080 BKN140
      TEMPO 3101/3104 VRB15G25KT BKN080
     FM310400 21009KT P6SM SCT090 BKN130
     FM310800 31009KT P6SM SCT090 BKN120
     FM311400 35007KT P6SM VCSH SCT080 BKN120
     FM311800 01014G20KT P6SM VCSH SCT070 BKN110 PROB30 3120/3124
      5SM -TSRA BKN070CB=



000
FTUS45 KBOU 302255 AAB
TAFDEN
TAF AMD
KDEN 302255Z 3023/3124 11008KT P6SM FEW090 SCT150
     FM310100 15012KT P6SM VCSH SCT080 BKN140
      TEMPO 3101/3103 VRB25G35KT BKN090
     FM310400 17011KT P6SM VCSH SCT090 BKN140
     FM310800 23007KT P6SM SCT090 BKN130
     FM311400 30009KT P6SM VCSH SCT080 BKN120
     FM311800 01013G24KT P6SM SCT070 BKN110 PROB30 3120/3124 5SM
      -TSRA FU BKN070CB=



000
FTUS45 KBOU 302255 AAB
TAFDEN
TAF AMD
KDEN 302255Z 3023/3124 11008KT P6SM FEW090 SCT150
     FM310100 15012KT P6SM VCSH SCT080 BKN140
      TEMPO 3101/3103 VRB25G35KT BKN090
     FM310400 17011KT P6SM VCSH SCT090 BKN140
     FM310800 23007KT P6SM SCT090 BKN130
     FM311400 30009KT P6SM VCSH SCT080 BKN120
     FM311800 01013G24KT P6SM SCT070 BKN110 PROB30 3120/3124 5SM
      -TSRA FU BKN070CB=



000
FTUS45 KBOU 302112 AAA
TAFBJC
TAF AMD
KBJC 302112Z 3021/3118 06005KT P6SM SCT070 SCT130 BKN200
     FM302300 09010KT P6SM VCTS SCT080CB BKN130
      TEMPO 3100/3103 VRB25G38KT BKN080CB
     FM310400 17011KT P6SM VCSH SCT090 BKN140
     FM310800 25007KT P6SM SCT090 BKN130
     FM311400 31009KT P6SM VCSH SCT080 BKN120=



000
FTUS45 KBOU 302112 AAA
TAFBJC
TAF AMD
KBJC 302112Z 3021/3118 06005KT P6SM SCT070 SCT130 BKN200
     FM302300 09010KT P6SM VCTS SCT080CB BKN130
      TEMPO 3100/3103 VRB25G38KT BKN080CB
     FM310400 17011KT P6SM VCSH SCT090 BKN140
     FM310800 25007KT P6SM SCT090 BKN130
     FM311400 31009KT P6SM VCSH SCT080 BKN120=



000
FTUS45 KBOU 302111 AAA
TAFAPA
TAF AMD
KAPA 302111Z 3021/3118 VRB05KT P6SM FEW090 SCT130 SCT220
     FM302300 14011KT P6SM FEW080 SCT130 SCT200
     FM310000 15010KT P6SM VCSH SCT080 BKN140
      TEMPO 3100/3103 VRB25G35KT BKN090
     FM310400 17012KT P6SM VCSH SCT090 BKN140
     FM310800 21007KT P6SM SCT090 BKN130
     FM311400 30009KT P6SM VCSH SCT080 BKN120=



000
FTUS45 KBOU 302111 AAA
TAFAPA
TAF AMD
KAPA 302111Z 3021/3118 VRB05KT P6SM FEW090 SCT130 SCT220
     FM302300 14011KT P6SM FEW080 SCT130 SCT200
     FM310000 15010KT P6SM VCSH SCT080 BKN140
      TEMPO 3100/3103 VRB25G35KT BKN090
     FM310400 17012KT P6SM VCSH SCT090 BKN140
     FM310800 21007KT P6SM SCT090 BKN130
     FM311400 30009KT P6SM VCSH SCT080 BKN120=



000
FTUS45 KBOU 302104 AAA
TAFDEN
TAF AMD
KDEN 302104Z 3021/3124 VRB04KT P6SM FEW080 SCT140 BKN250
     FM302300 14011KT P6SM FEW080 SCT140
     FM310100 15010KT P6SM VCSH SCT080 BKN140
      TEMPO 3101/3103 VRB25G35KT BKN090
     FM310400 17011KT P6SM VCSH SCT090 BKN140
     FM310800 23007KT P6SM SCT090 BKN130
     FM311400 30009KT P6SM VCSH SCT080 BKN120
     FM311800 01013G24KT P6SM SCT070 BKN110 PROB30 3120/3124 5SM
      -TSRA FU BKN070CB=



000
FTUS45 KBOU 302104 AAA
TAFDEN
TAF AMD
KDEN 302104Z 3021/3124 VRB04KT P6SM FEW080 SCT140 BKN250
     FM302300 14011KT P6SM FEW080 SCT140
     FM310100 15010KT P6SM VCSH SCT080 BKN140
      TEMPO 3101/3103 VRB25G35KT BKN090
     FM310400 17011KT P6SM VCSH SCT090 BKN140
     FM310800 23007KT P6SM SCT090 BKN130
     FM311400 30009KT P6SM VCSH SCT080 BKN120
     FM311800 01013G24KT P6SM SCT070 BKN110 PROB30 3120/3124 5SM
      -TSRA FU BKN070CB=



000
FTUS45 KBOU 301741
TAFAPA
TAF
KAPA 301741Z 3018/3118 23007KT P6SM FEW100 BKN250
     FM301900 15007KT P6SM FEW090 SCT130 BKN220
     FM302300 12013KT P6SM VCTS SCT080CB BKN130
      TEMPO 3100/3103 VRB25G38KT BKN080CB
     FM310400 17012KT P6SM VCSH SCT090 BKN140
     FM310800 21007KT P6SM SCT090 BKN130
     FM311400 30009KT P6SM VCSH SCT080 BKN120=



000
FTUS45 KBOU 301741
TAFBJC
TAF
KBJC 301741Z 3018/3118 VRB05KT P6SM FEW080 SCT140 BKN250
     FM301900 15007KT P6SM SCT080 SCT130 BKN200
     FM302300 10010KT P6SM VCTS SCT080CB BKN130
      TEMPO 3100/3103 VRB25G38KT BKN080CB
     FM310400 17011KT P6SM VCSH SCT090 BKN140
     FM310800 25007KT P6SM SCT090 BKN130
     FM311400 31009KT P6SM VCSH SCT080 BKN120=



000
FTUS45 KBOU 301741
TAFDEN
TAF
KDEN 301741Z 3018/3124 16006KT P6SM FEW080 SCT140 BKN250
     FM302300 13012KT P6SM VCTS SCT090CB BKN140
      TEMPO 3100/3103 VRB25G38KT BKN090CB
     FM310400 17011KT P6SM VCSH SCT090 BKN140
     FM310800 23007KT P6SM SCT090 BKN130
     FM311400 30009KT P6SM VCSH SCT080 BKN120
     FM311800 01013G24KT P6SM SCT070 BKN110 PROB30 3120/3124 5SM
      -TSRA FU BKN070CB=



000
FTUS45 KBOU 301741
TAFBJC
TAF
KBJC 301741Z 3018/3118 VRB05KT P6SM FEW080 SCT140 BKN250
     FM301900 15007KT P6SM SCT080 SCT130 BKN200
     FM302300 10010KT P6SM VCTS SCT080CB BKN130
      TEMPO 3100/3103 VRB25G38KT BKN080CB
     FM310400 17011KT P6SM VCSH SCT090 BKN140
     FM310800 25007KT P6SM SCT090 BKN130
     FM311400 31009KT P6SM VCSH SCT080 BKN120=



000
FTUS45 KBOU 301741
TAFDEN
TAF
KDEN 301741Z 3018/3124 16006KT P6SM FEW080 SCT140 BKN250
     FM302300 13012KT P6SM VCTS SCT090CB BKN140
      TEMPO 3100/3103 VRB25G38KT BKN090CB
     FM310400 17011KT P6SM VCSH SCT090 BKN140
     FM310800 23007KT P6SM SCT090 BKN130
     FM311400 30009KT P6SM VCSH SCT080 BKN120
     FM311800 01013G24KT P6SM SCT070 BKN110 PROB30 3120/3124 5SM
      -TSRA FU BKN070CB=



000
FTUS45 KBOU 301741
TAFAPA
TAF
KAPA 301741Z 3018/3118 23007KT P6SM FEW100 BKN250
     FM301900 15007KT P6SM FEW090 SCT130 BKN220
     FM302300 12013KT P6SM VCTS SCT080CB BKN130
      TEMPO 3100/3103 VRB25G38KT BKN080CB
     FM310400 17012KT P6SM VCSH SCT090 BKN140
     FM310800 21007KT P6SM SCT090 BKN130
     FM311400 30009KT P6SM VCSH SCT080 BKN120=



000
FTUS45 KBOU 301741
TAFAPA
TAF
KAPA 301741Z 3018/3118 23007KT P6SM FEW100 BKN250
     FM301900 15007KT P6SM FEW090 SCT130 BKN220
     FM302300 12013KT P6SM VCTS SCT080CB BKN130
      TEMPO 3100/3103 VRB25G38KT BKN080CB
     FM310400 17012KT P6SM VCSH SCT090 BKN140
     FM310800 21007KT P6SM SCT090 BKN130
     FM311400 30009KT P6SM VCSH SCT080 BKN120=



000
FTUS45 KBOU 301741
TAFDEN
TAF
KDEN 301741Z 3018/3124 16006KT P6SM FEW080 SCT140 BKN250
     FM302300 13012KT P6SM VCTS SCT090CB BKN140
      TEMPO 3100/3103 VRB25G38KT BKN090CB
     FM310400 17011KT P6SM VCSH SCT090 BKN140
     FM310800 23007KT P6SM SCT090 BKN130
     FM311400 30009KT P6SM VCSH SCT080 BKN120
     FM311800 01013G24KT P6SM SCT070 BKN110 PROB30 3120/3124 5SM
      -TSRA FU BKN070CB=



000
FTUS45 KBOU 301741
TAFBJC
TAF
KBJC 301741Z 3018/3118 VRB05KT P6SM FEW080 SCT140 BKN250
     FM301900 15007KT P6SM SCT080 SCT130 BKN200
     FM302300 10010KT P6SM VCTS SCT080CB BKN130
      TEMPO 3100/3103 VRB25G38KT BKN080CB
     FM310400 17011KT P6SM VCSH SCT090 BKN140
     FM310800 25007KT P6SM SCT090 BKN130
     FM311400 31009KT P6SM VCSH SCT080 BKN120=



000
FTUS45 KBOU 301741
TAFDEN
TAF
KDEN 301741Z 3018/3124 16006KT P6SM FEW080 SCT140 BKN250
     FM302300 13012KT P6SM VCTS SCT090CB BKN140
      TEMPO 3100/3103 VRB25G38KT BKN090CB
     FM310400 17011KT P6SM VCSH SCT090 BKN140
     FM310800 23007KT P6SM SCT090 BKN130
     FM311400 30009KT P6SM VCSH SCT080 BKN120
     FM311800 01013G24KT P6SM SCT070 BKN110 PROB30 3120/3124 5SM
      -TSRA FU BKN070CB=



000
FTUS45 KBOU 301741
TAFBJC
TAF
KBJC 301741Z 3018/3118 VRB05KT P6SM FEW080 SCT140 BKN250
     FM301900 15007KT P6SM SCT080 SCT130 BKN200
     FM302300 10010KT P6SM VCTS SCT080CB BKN130
      TEMPO 3100/3103 VRB25G38KT BKN080CB
     FM310400 17011KT P6SM VCSH SCT090 BKN140
     FM310800 25007KT P6SM SCT090 BKN130
     FM311400 31009KT P6SM VCSH SCT080 BKN120=



000
FTUS45 KBOU 301741
TAFAPA
TAF
KAPA 301741Z 3018/3118 23007KT P6SM FEW100 BKN250
     FM301900 15007KT P6SM FEW090 SCT130 BKN220
     FM302300 12013KT P6SM VCTS SCT080CB BKN130
      TEMPO 3100/3103 VRB25G38KT BKN080CB
     FM310400 17012KT P6SM VCSH SCT090 BKN140
     FM310800 21007KT P6SM SCT090 BKN130
     FM311400 30009KT P6SM VCSH SCT080 BKN120=



000
FTUS45 KBOU 301509 AAA
TAFDEN
TAF AMD
KDEN 301509Z 3015/3118 22007KT P6SM FEW140 SCT250
     FM301900 13009KT P6SM FEW100 SCT140 BKN250
     FM310000 17010KT P6SM VCTS SCT100CB BKN140
      TEMPO 3100/3103 VRB20G30KT BKN090CB
     FM310400 21011KT P6SM SCT090 BKN140
     FM311000 25007KT P6SM SCT090 BKN140
     FM311400 36010KT P6SM SCT090 BKN140=



000
FTUS45 KBOU 301509 AAA
TAFDEN
TAF AMD
KDEN 301509Z 3015/3118 22007KT P6SM FEW140 SCT250
     FM301900 13009KT P6SM FEW100 SCT140 BKN250
     FM310000 17010KT P6SM VCTS SCT100CB BKN140
      TEMPO 3100/3103 VRB20G30KT BKN090CB
     FM310400 21011KT P6SM SCT090 BKN140
     FM311000 25007KT P6SM SCT090 BKN140
     FM311400 36010KT P6SM SCT090 BKN140=



000
FTUS45 KBOU 301127
TAFBJC
TAF
KBJC 301127Z 3012/3112 30005KT P6SM FEW140 SCT250
     FM301600 10007KT P6SM SCT090 SCT140 BKN200
     FM310000 33007KT P6SM SCT090 BKN140
      TEMPO 3100/3103 VRB20G30KT BKN090
     FM310400 29007KT P6SM SCT090 BKN140=



000
FTUS45 KBOU 301127
TAFAPA
TAF
KAPA 301127Z 3012/3112 22007KT P6SM FEW140 SCT250
     FM301600 VRB05KT P6SM FEW090 SCT250
     FM301900 12009KT P6SM SCT090 SCT140 BKN200
     FM310000 16010KT P6SM SCT090 BKN140
      TEMPO 3100/3103 VRB20G30KT BKN090
     FM310400 19008KT P6SM SCT090 BKN140
     FM311000 25007KT P6SM SCT090 BKN140=



000
FTUS45 KBOU 301127
TAFBJC
TAF
KBJC 301127Z 3012/3112 30005KT P6SM FEW140 SCT250
     FM301600 10007KT P6SM SCT090 SCT140 BKN200
     FM310000 33007KT P6SM SCT090 BKN140
      TEMPO 3100/3103 VRB20G30KT BKN090
     FM310400 29007KT P6SM SCT090 BKN140=



000
FTUS45 KBOU 301127
TAFDEN
TAF
KDEN 301127Z 3012/3118 25007KT P6SM FEW140 SCT250
     FM301600 VRB05KT P6SM FEW090 SCT250
     FM301900 11009KT P6SM SCT090 SCT140 BKN200
     FM310000 17010KT P6SM SCT090 BKN140
      TEMPO 3100/3103 VRB20G30KT BKN090
     FM310400 21011KT P6SM SCT090 BKN140
     FM311000 25007KT P6SM SCT090 BKN140
     FM311400 36010KT P6SM SCT090 BKN140=



000
FTUS45 KBOU 301127
TAFBJC
TAF
KBJC 301127Z 3012/3112 30005KT P6SM FEW140 SCT250
     FM301600 10007KT P6SM SCT090 SCT140 BKN200
     FM310000 33007KT P6SM SCT090 BKN140
      TEMPO 3100/3103 VRB20G30KT BKN090
     FM310400 29007KT P6SM SCT090 BKN140=



000
FTUS45 KBOU 301127
TAFBJC
TAF
KBJC 301127Z 3012/3112 30005KT P6SM FEW140 SCT250
     FM301600 10007KT P6SM SCT090 SCT140 BKN200
     FM310000 33007KT P6SM SCT090 BKN140
      TEMPO 3100/3103 VRB20G30KT BKN090
     FM310400 29007KT P6SM SCT090 BKN140=



000
FTUS45 KBOU 301127
TAFDEN
TAF
KDEN 301127Z 3012/3118 25007KT P6SM FEW140 SCT250
     FM301600 VRB05KT P6SM FEW090 SCT250
     FM301900 11009KT P6SM SCT090 SCT140 BKN200
     FM310000 17010KT P6SM SCT090 BKN140
      TEMPO 3100/3103 VRB20G30KT BKN090
     FM310400 21011KT P6SM SCT090 BKN140
     FM311000 25007KT P6SM SCT090 BKN140
     FM311400 36010KT P6SM SCT090 BKN140=



000
FTUS45 KBOU 301127
TAFAPA
TAF
KAPA 301127Z 3012/3112 22007KT P6SM FEW140 SCT250
     FM301600 VRB05KT P6SM FEW090 SCT250
     FM301900 12009KT P6SM SCT090 SCT140 BKN200
     FM310000 16010KT P6SM SCT090 BKN140
      TEMPO 3100/3103 VRB20G30KT BKN090
     FM310400 19008KT P6SM SCT090 BKN140
     FM311000 25007KT P6SM SCT090 BKN140=



000
FTUS45 KBOU 300805 AAA
TAFDEN
TAF AMD
KDEN 300805Z 3008/3112 18016KT P6SM SCT250
     FM301000 21012KT P6SM SCT250
     FM301400 25007KT P6SM FEW140 SCT250
     FM301600 VRB05KT P6SM FEW090 SCT140 SCT250
     FM302100 12009KT P6SM SCT090 SCT140
     FM310200 20010KT P6SM SCT090 BKN140
     FM311000 25007KT P6SM SCT090 BKN140=



000
FTUS45 KBOU 300805 AAA
TAFDEN
TAF AMD
KDEN 300805Z 3008/3112 18016KT P6SM SCT250
     FM301000 21012KT P6SM SCT250
     FM301400 25007KT P6SM FEW140 SCT250
     FM301600 VRB05KT P6SM FEW090 SCT140 SCT250
     FM302100 12009KT P6SM SCT090 SCT140
     FM310200 20010KT P6SM SCT090 BKN140
     FM311000 25007KT P6SM SCT090 BKN140=



000
FTUS45 KBOU 300533
TAFAPA
TAF
KAPA 300533Z 3006/3106 18016KT P6SM SCT250
     FM300800 21009KT P6SM SCT250
     FM301500 VRB05KT P6SM FEW140 SCT250
     FM302000 13009KT P6SM SCT090 SCT140
     FM310200 19009KT P6SM SCT090 BKN140=



000
FTUS45 KBOU 300533
TAFDEN
TAF
KDEN 300533Z 3006/3112 18016KT P6SM SCT250
     FM300800 21012KT P6SM SCT250
     FM301400 25007KT P6SM FEW140 SCT250
     FM301600 VRB05KT P6SM FEW090 SCT140 SCT250
     FM302100 12009KT P6SM SCT090 SCT140
     FM310200 20010KT P6SM SCT090 BKN140
     FM311000 25007KT P6SM SCT090 BKN140=



000
FTUS45 KBOU 300533
TAFDEN
TAF
KDEN 300533Z 3006/3112 18016KT P6SM SCT250
     FM300800 21012KT P6SM SCT250
     FM301400 25007KT P6SM FEW140 SCT250
     FM301600 VRB05KT P6SM FEW090 SCT140 SCT250
     FM302100 12009KT P6SM SCT090 SCT140
     FM310200 20010KT P6SM SCT090 BKN140
     FM311000 25007KT P6SM SCT090 BKN140=



000
FTUS45 KBOU 300533
TAFAPA
TAF
KAPA 300533Z 3006/3106 18016KT P6SM SCT250
     FM300800 21009KT P6SM SCT250
     FM301500 VRB05KT P6SM FEW140 SCT250
     FM302000 13009KT P6SM SCT090 SCT140
     FM310200 19009KT P6SM SCT090 BKN140=



000
FTUS45 KBOU 300533
TAFBJC
TAF
KBJC 300533Z 3006/3106 20008KT P6SM SCT250
     FM301200 VRB05KT P6SM FEW140 SCT250
     FM301800 10007KT P6SM SCT090 SCT140
     FM310200 29005KT P6SM SCT090 BKN140=



000
FTUS45 KBOU 300533
TAFBJC
TAF
KBJC 300533Z 3006/3106 20008KT P6SM SCT250
     FM301200 VRB05KT P6SM FEW140 SCT250
     FM301800 10007KT P6SM SCT090 SCT140
     FM310200 29005KT P6SM SCT090 BKN140=



000
FTUS45 KBOU 300533
TAFDEN
TAF
KDEN 300533Z 3006/3112 18016KT P6SM SCT250
     FM300800 21012KT P6SM SCT250
     FM301400 25007KT P6SM FEW140 SCT250
     FM301600 VRB05KT P6SM FEW090 SCT140 SCT250
     FM302100 12009KT P6SM SCT090 SCT140
     FM310200 20010KT P6SM SCT090 BKN140
     FM311000 25007KT P6SM SCT090 BKN140=



000
FTUS45 KBOU 300533
TAFAPA
TAF
KAPA 300533Z 3006/3106 18016KT P6SM SCT250
     FM300800 21009KT P6SM SCT250
     FM301500 VRB05KT P6SM FEW140 SCT250
     FM302000 13009KT P6SM SCT090 SCT140
     FM310200 19009KT P6SM SCT090 BKN140=



000
FTUS45 KBOU 300533
TAFBJC
TAF
KBJC 300533Z 3006/3106 20008KT P6SM SCT250
     FM301200 VRB05KT P6SM FEW140 SCT250
     FM301800 10007KT P6SM SCT090 SCT140
     FM310200 29005KT P6SM SCT090 BKN140=



000
FTUS45 KBOU 300411 AAA
TAFAPA
TAF AMD
KAPA 300411Z 3004/3024 17015KT P6SM SCT130
     FM300600 19010KT P6SM SCT250
     FM301400 24005KT P6SM SCT140 SCT250
     FM301700 VRB04KT P6SM FEW090 SCT140 SCT250
     FM302100 16009KT P6SM SCT090 SCT140=



000
FTUS45 KBOU 300411 AAA
TAFAPA
TAF AMD
KAPA 300411Z 3004/3024 17015KT P6SM SCT130
     FM300600 19010KT P6SM SCT250
     FM301400 24005KT P6SM SCT140 SCT250
     FM301700 VRB04KT P6SM FEW090 SCT140 SCT250
     FM302100 16009KT P6SM SCT090 SCT140=



000
FTUS45 KBOU 300302 AAA
TAFDEN
TAF AMD
KDEN 300302Z 3003/3106 17014G22KT P6SM FEW120 SCT250
     FM300600 20012KT P6SM SCT250
     FM301500 25007KT P6SM SCT140 SCT250
     FM301800 VRB05KT P6SM FEW090 SCT140 SCT250
     FM302100 15009KT P6SM SCT090 SCT140=



000
FTUS45 KBOU 300302 AAA
TAFDEN
TAF AMD
KDEN 300302Z 3003/3106 17014G22KT P6SM FEW120 SCT250
     FM300600 20012KT P6SM SCT250
     FM301500 25007KT P6SM SCT140 SCT250
     FM301800 VRB05KT P6SM FEW090 SCT140 SCT250
     FM302100 15009KT P6SM SCT090 SCT140=



000
FTUS45 KBOU 300203 AAA
TAFBJC
TAF AMD
KBJC 300203Z 3002/3024 16012KT P6SM FEW090 SCT250
     FM300500 24006KT P6SM SCT250
     FM301000 VRB04KT P6SM SCT140 SCT250
     FM302000 10007KT P6SM SCT090 SCT140=



000
FTUS45 KBOU 300203 AAA
TAFBJC
TAF AMD
KBJC 300203Z 3002/3024 16012KT P6SM FEW090 SCT250
     FM300500 24006KT P6SM SCT250
     FM301000 VRB04KT P6SM SCT140 SCT250
     FM302000 10007KT P6SM SCT090 SCT140=



000
FTUS45 KBOU 300203 AAA
TAFBJC
TAF AMD
KBJC 300203Z 3002/3024 16012KT P6SM FEW090 SCT250
     FM300500 24006KT P6SM SCT250
     FM301000 VRB04KT P6SM SCT140 SCT250
     FM302000 10007KT P6SM SCT090 SCT140=



000
FTUS45 KBOU 300203 AAA
TAFBJC
TAF AMD
KBJC 300203Z 3002/3024 16012KT P6SM FEW090 SCT250
     FM300500 24006KT P6SM SCT250
     FM301000 VRB04KT P6SM SCT140 SCT250
     FM302000 10007KT P6SM SCT090 SCT140=



000
FTUS45 KBOU 292323
TAFAPA
TAF
KAPA 292323Z 3000/3024 17015KT P6SM FEW080 SCT150
     FM300400 19010KT P6SM SCT250
     FM301400 24005KT P6SM SCT140 SCT250
     FM301700 VRB04KT P6SM FEW090 SCT140 SCT250
     FM302100 16009KT P6SM SCT090 SCT140=



000
FTUS45 KBOU 292323
TAFBJC
TAF
KBJC 292323Z 3000/3024 14006KT P6SM FEW090 SCT250
     FM300200 17006KT P6SM FEW090 SCT250
     FM300500 24006KT P6SM SCT250
     FM301000 VRB04KT P6SM SCT140 SCT250
     FM302000 10007KT P6SM SCT090 SCT140=



000
FTUS45 KBOU 292323
TAFDEN
TAF
KDEN 292323Z 3000/3106 16015KT P6SM FEW080 SCT250
     FM300500 20014KT P6SM SCT250
     FM301500 25007KT P6SM SCT140 SCT250
     FM301800 VRB05KT P6SM FEW090 SCT140 SCT250
     FM302100 15009KT P6SM SCT090 SCT140=



000
FTUS45 KBOU 292323
TAFAPA
TAF
KAPA 292323Z 3000/3024 17015KT P6SM FEW080 SCT150
     FM300400 19010KT P6SM SCT250
     FM301400 24005KT P6SM SCT140 SCT250
     FM301700 VRB04KT P6SM FEW090 SCT140 SCT250
     FM302100 16009KT P6SM SCT090 SCT140=



000
FTUS45 KBOU 292323
TAFBJC
TAF
KBJC 292323Z 3000/3024 14006KT P6SM FEW090 SCT250
     FM300200 17006KT P6SM FEW090 SCT250
     FM300500 24006KT P6SM SCT250
     FM301000 VRB04KT P6SM SCT140 SCT250
     FM302000 10007KT P6SM SCT090 SCT140=



000
FTUS45 KBOU 292323
TAFDEN
TAF
KDEN 292323Z 3000/3106 16015KT P6SM FEW080 SCT250
     FM300500 20014KT P6SM SCT250
     FM301500 25007KT P6SM SCT140 SCT250
     FM301800 VRB05KT P6SM FEW090 SCT140 SCT250
     FM302100 15009KT P6SM SCT090 SCT140=



000
FTUS45 KBOU 292323
TAFDEN
TAF
KDEN 292323Z 3000/3106 16015KT P6SM FEW080 SCT250
     FM300500 20014KT P6SM SCT250
     FM301500 25007KT P6SM SCT140 SCT250
     FM301800 VRB05KT P6SM FEW090 SCT140 SCT250
     FM302100 15009KT P6SM SCT090 SCT140=



000
FTUS45 KBOU 292323
TAFBJC
TAF
KBJC 292323Z 3000/3024 14006KT P6SM FEW090 SCT250
     FM300200 17006KT P6SM FEW090 SCT250
     FM300500 24006KT P6SM SCT250
     FM301000 VRB04KT P6SM SCT140 SCT250
     FM302000 10007KT P6SM SCT090 SCT140=



000
FTUS45 KBOU 292323
TAFBJC
TAF
KBJC 292323Z 3000/3024 14006KT P6SM FEW090 SCT250
     FM300200 17006KT P6SM FEW090 SCT250
     FM300500 24006KT P6SM SCT250
     FM301000 VRB04KT P6SM SCT140 SCT250
     FM302000 10007KT P6SM SCT090 SCT140=



000
FTUS45 KBOU 292323
TAFDEN
TAF
KDEN 292323Z 3000/3106 16015KT P6SM FEW080 SCT250
     FM300500 20014KT P6SM SCT250
     FM301500 25007KT P6SM SCT140 SCT250
     FM301800 VRB05KT P6SM FEW090 SCT140 SCT250
     FM302100 15009KT P6SM SCT090 SCT140=



000
FTUS45 KBOU 292323
TAFAPA
TAF
KAPA 292323Z 3000/3024 17015KT P6SM FEW080 SCT150
     FM300400 19010KT P6SM SCT250
     FM301400 24005KT P6SM SCT140 SCT250
     FM301700 VRB04KT P6SM FEW090 SCT140 SCT250
     FM302100 16009KT P6SM SCT090 SCT140=



000
FTUS45 KBOU 292323
TAFAPA
TAF
KAPA 292323Z 3000/3024 17015KT P6SM FEW080 SCT150
     FM300400 19010KT P6SM SCT250
     FM301400 24005KT P6SM SCT140 SCT250
     FM301700 VRB04KT P6SM FEW090 SCT140 SCT250
     FM302100 16009KT P6SM SCT090 SCT140=



000
FTUS45 KBOU 292300 AAB
TAFDEN
TAF AMD
KDEN 292300Z 2923/3024 16014KT P6SM FEW080 SCT200
     FM300200 19014KT P6SM FEW080 SCT140
     FM300500 22010KT P6SM SCT200
     FM301500 25007KT P6SM SCT090 SCT140=



000
FTUS45 KBOU 292300 AAB
TAFDEN
TAF AMD
KDEN 292300Z 2923/3024 16014KT P6SM FEW080 SCT200
     FM300200 19014KT P6SM FEW080 SCT140
     FM300500 22010KT P6SM SCT200
     FM301500 25007KT P6SM SCT090 SCT140=



000
FTUS45 KBOU 292226 AAA
TAFBJC
TAF AMD
KBJC 292226Z 2922/3018 10007KT P6SM FEW090
     FM300200 20008KT P6SM FEW080 SCT140
     FM301500 25009KT P6SM SCT080 BKN140=



000
FTUS45 KBOU 292226 AAA
TAFBJC
TAF AMD
KBJC 292226Z 2922/3018 10007KT P6SM FEW090
     FM300200 20008KT P6SM FEW080 SCT140
     FM301500 25009KT P6SM SCT080 BKN140=



000
FTUS45 KBOU 292048 AAA
TAFDEN
TAF AMD
KDEN 292048Z 2921/3024 11014KT P6SM SCT100
     FM300000 15012KT P6SM FEW110 SCT200
     FM300200 19014KT P6SM FEW090 SCT140
     FM300500 22010KT P6SM SCT200
     FM301500 25007KT P6SM SCT090 SCT140=



000
FTUS45 KBOU 292048 AAA
TAFDEN
TAF AMD
KDEN 292048Z 2921/3024 11014KT P6SM SCT100
     FM300000 15012KT P6SM FEW110 SCT200
     FM300200 19014KT P6SM FEW090 SCT140
     FM300500 22010KT P6SM SCT200
     FM301500 25007KT P6SM SCT090 SCT140=



000
FTUS45 KBOU 292014 AAA
TAFAPA
TAF AMD
KAPA 292014Z 2920/3018 15007KT P6SM FEW090
     FM292200 16011G19KT P6SM FEW080 SCT150
     FM300100 18011KT P6SM FEW080 SCT140
     FM300500 20007KT P6SM SCT200
     FM301500 24008KT P6SM SCT080 SCT130=



000
FTUS45 KBOU 292014 AAA
TAFAPA
TAF AMD
KAPA 292014Z 2920/3018 15007KT P6SM FEW090
     FM292200 16011G19KT P6SM FEW080 SCT150
     FM300100 18011KT P6SM FEW080 SCT140
     FM300500 20007KT P6SM SCT200
     FM301500 24008KT P6SM SCT080 SCT130=



000
FTUS45 KBOU 291740
TAFAPA
TAF
KAPA 291740Z 2918/3018 16008G15KT P6SM FEW080 FEW200
     FM292200 16014KT P6SM FEW080 SCT200
     FM300100 18011KT P6SM FEW080 SCT140
     FM300500 20007KT P6SM SCT200
     FM301500 24008KT P6SM SCT080 SCT130=



000
FTUS45 KBOU 291740
TAFAPA
TAF
KAPA 291740Z 2918/3018 16008G15KT P6SM FEW080 FEW200
     FM292200 16014KT P6SM FEW080 SCT200
     FM300100 18011KT P6SM FEW080 SCT140
     FM300500 20007KT P6SM SCT200
     FM301500 24008KT P6SM SCT080 SCT130=



000
FTUS45 KBOU 291740
TAFDEN
TAF
KDEN 291740Z 2918/3024 17011G17KT P6SM FEW200
     FM292200 15014KT P6SM FEW110 SCT200
     FM300100 19013KT P6SM FEW090 SCT140
     FM300500 22010KT P6SM SCT200
     FM301500 25007KT P6SM SCT090 SCT140=



000
FTUS45 KBOU 291740
TAFBJC
TAF
KBJC 291740Z 2918/3018 VRB03KT P6SM FEW140
     FM292000 14006KT P6SM FEW090
     FM292200 17007KT P6SM FEW080 SCT200
     FM300200 20008KT P6SM FEW080 SCT140
     FM301500 25009KT P6SM SCT080 BKN140=



000
FTUS45 KBOU 291740
TAFBJC
TAF
KBJC 291740Z 2918/3018 VRB03KT P6SM FEW140
     FM292000 14006KT P6SM FEW090
     FM292200 17007KT P6SM FEW080 SCT200
     FM300200 20008KT P6SM FEW080 SCT140
     FM301500 25009KT P6SM SCT080 BKN140=



000
FTUS45 KBOU 291740
TAFDEN
TAF
KDEN 291740Z 2918/3024 17011G17KT P6SM FEW200
     FM292200 15014KT P6SM FEW110 SCT200
     FM300100 19013KT P6SM FEW090 SCT140
     FM300500 22010KT P6SM SCT200
     FM301500 25007KT P6SM SCT090 SCT140=



000
FTUS45 KBOU 291507 AAA
TAFDEN
TAF AMD
KDEN 291507Z 2915/3018 21010KT P6SM FEW120
     FM291800 16011KT P6SM FEW120 FEW220
     FM292100 12012G18KT P6SM FEW090 SCT220
     FM300100 17014KT P6SM FEW090 SCT140
     FM300500 21012KT P6SM SCT200
     FM301500 23007KT P6SM SCT200=



000
FTUS45 KBOU 291507 AAA
TAFDEN
TAF AMD
KDEN 291507Z 2915/3018 21010KT P6SM FEW120
     FM291800 16011KT P6SM FEW120 FEW220
     FM292100 12012G18KT P6SM FEW090 SCT220
     FM300100 17014KT P6SM FEW090 SCT140
     FM300500 21012KT P6SM SCT200
     FM301500 23007KT P6SM SCT200=



000
FTUS45 KBOU 291507 AAA
TAFDEN
TAF AMD
KDEN 291507Z 2915/3018 21010KT P6SM FEW120
     FM291800 16011KT P6SM FEW120 FEW220
     FM292100 12012G18KT P6SM FEW090 SCT220
     FM300100 17014KT P6SM FEW090 SCT140
     FM300500 21012KT P6SM SCT200
     FM301500 23007KT P6SM SCT200=



000
FTUS45 KBOU 291507 AAA
TAFDEN
TAF AMD
KDEN 291507Z 2915/3018 21010KT P6SM FEW120
     FM291800 16011KT P6SM FEW120 FEW220
     FM292100 12012G18KT P6SM FEW090 SCT220
     FM300100 17014KT P6SM FEW090 SCT140
     FM300500 21012KT P6SM SCT200
     FM301500 23007KT P6SM SCT200=



000
FTUS45 KBOU 291126
TAFBJC
TAF
KBJC 291126Z 2912/3012 VRB03KT P6SM FEW140
     FM291500 15006KT P6SM FEW090
     FM292000 10008KT P6SM FEW090 SCT200
     FM300100 14009KT P6SM FEW090 SCT140
     FM300500 22006KT P6SM SCT200=



000
FTUS45 KBOU 291126
TAFBJC
TAF
KBJC 291126Z 2912/3012 VRB03KT P6SM FEW140
     FM291500 15006KT P6SM FEW090
     FM292000 10008KT P6SM FEW090 SCT200
     FM300100 14009KT P6SM FEW090 SCT140
     FM300500 22006KT P6SM SCT200=



000
FTUS45 KBOU 291126
TAFAPA
TAF
KAPA 291126Z 2912/3012 18008KT P6SM FEW140
     FM291800 15012G18KT P6SM FEW090 SCT200
     FM300100 18014KT P6SM FEW090 SCT140
     FM300500 20011KT P6SM SCT200=



000
FTUS45 KBOU 291126
TAFDEN
TAF
KDEN 291126Z 2912/3018 21010KT P6SM FEW140
     FM291800 15012KT P6SM FEW090
     FM292100 12012G18KT P6SM FEW090 SCT200
     FM300100 17014KT P6SM FEW090 SCT140
     FM300500 21012KT P6SM SCT200
     FM301500 23007KT P6SM SCT200=



000
FTUS45 KBOU 291126
TAFDEN
TAF
KDEN 291126Z 2912/3018 21010KT P6SM FEW140
     FM291800 15012KT P6SM FEW090
     FM292100 12012G18KT P6SM FEW090 SCT200
     FM300100 17014KT P6SM FEW090 SCT140
     FM300500 21012KT P6SM SCT200
     FM301500 23007KT P6SM SCT200=



000
FTUS45 KBOU 291126
TAFAPA
TAF
KAPA 291126Z 2912/3012 18008KT P6SM FEW140
     FM291800 15012G18KT P6SM FEW090 SCT200
     FM300100 18014KT P6SM FEW090 SCT140
     FM300500 20011KT P6SM SCT200=



000
FTUS45 KBOU 290946 AAB
TAFDEN
TAF AMD
KDEN 290946Z 2910/3012 21010KT P6SM FEW140
     FM291700 15012KT P6SM FEW090
     FM300100 18014KT P6SM FEW090 SCT200
     FM300500 21012KT P6SM SCT200=



000
FTUS45 KBOU 290946 AAB
TAFDEN
TAF AMD
KDEN 290946Z 2910/3012 21010KT P6SM FEW140
     FM291700 15012KT P6SM FEW090
     FM300100 18014KT P6SM FEW090 SCT200
     FM300500 21012KT P6SM SCT200=



000
FTUS45 KBOU 290748 AAA
TAFDEN
TAF AMD
KDEN 290748Z 2908/3012 21010KT P6SM FEW140
     FM291700 15012KT P6SM FEW090
     FM300100 18014KT P6SM FEW090 SCT200
     FM300500 21012KT P6SM SCT200=



000
FTUS45 KBOU 290748 AAA
TAFDEN
TAF AMD
KDEN 290748Z 2908/3012 21010KT P6SM FEW140
     FM291700 15012KT P6SM FEW090
     FM300100 18014KT P6SM FEW090 SCT200
     FM300500 21012KT P6SM SCT200=



000
FTUS45 KBOU 290748 AAA
TAFDEN
TAF AMD
KDEN 290748Z 2908/3012 21010KT P6SM FEW140
     FM291700 15012KT P6SM FEW090
     FM300100 18014KT P6SM FEW090 SCT200
     FM300500 21012KT P6SM SCT200=



000
FTUS45 KBOU 290748 AAA
TAFDEN
TAF AMD
KDEN 290748Z 2908/3012 21010KT P6SM FEW140
     FM291700 15012KT P6SM FEW090
     FM300100 18014KT P6SM FEW090 SCT200
     FM300500 21012KT P6SM SCT200=



    US Dept of Commerce
    National Oceanic and Atmospheric Administration
    National Weather Service
    1325 East West Highway
    Silver Spring, MD 20910
    Page Author: NWS Internet Services Team
Disclaimer
Information Quality
Credits
Glossary
Privacy Policy
Freedom of Information Act (FOIA)
About Us
Career Opportunities